EKRKEKRN

Guest
Details From EKRK - Copenhagen Roskilde INT
To EKRN - Bornholm Ronne
Flight Number -
Tags generated
Created
Modified
Stats Distance 95 nm / 176 km
Max Altitude 7,300 ft / 2,225 m
Waypoints 3
Social Downloads 0
Likes 0
Share VATSIM

Download

Looking for another format? Having issues loading an existing format? Contact us
Advertisement - Login to hide

Notes

Basic altitude profile: - Ascent Rate: 2500ft/min - Ascent Speed: 250kts - Cruise Altitude: 35000ft - Cruise Speed: 420kts - Descent Rate: 1500ft/min - Descent Speed: 250kts Options: - Use NATs: yes - Use PACOTS: yes - Use low airways: yes - Use high airways: yes

Route

EKRK KOKAK EKRN

ID Type Via Altitude Latitude Longitude Leg Dist Tot Dist Heading (true) Name
O EKRK APT - 0 ft / 0 m 55.58530˚ 12.12918˚ - 0 nm - Copenhagen Roskilde INT
KOKAK FIX - 7,300 ft / 2,225 m 55.49139˚ 12.71500˚ 20 nm 20 nm 106° / 106° -
O EKRN APT - 0 ft / 0 m 55.06327˚ 14.75956˚ 74 nm 95 nm 109° / 111° Bornholm Ronne

Altitude Profile

Advertisement - Login to hide

EKRK

Details ICAO EKRK (RKE)
Name Copenhagen Roskilde INT
Region Denmark / Faroe Islands
Timezone Europe/Copenhagen (UTC+1.0)
Stats Elevation 146 ft / 45 m (AMSL)
Location 55.585296° 12.129176°
Runways 2
Magnetic Variation 3.550° E

METAR

EKRK 151620Z AUTO 25005KT 9999NDV FEW016/// BKN046/// 02/01 Q0995

Decode

TAF

Not found

Departure Runways

ID Width Length Bearing (true) Bearing (mag) Surface Threshold Offset Overrun Length
03 105 ft / 32 m 4,926 ft / 1,501 m 30.86° 27.31° Asphalt 0 ft / 0 m 0 ft / 0 m
11 105 ft / 32 m 5,908 ft / 1,801 m 116.31° 112.76° Asphalt 0 ft / 0 m 0 ft / 0 m
21 105 ft / 32 m 4,926 ft / 1,501 m 210.88° 207.33° Asphalt 0 ft / 0 m 0 ft / 0 m
29 105 ft / 32 m 5,908 ft / 1,801 m 296.33° 292.78° Asphalt 194 ft / 59 m 0 ft / 0 m

EKRN

Details ICAO EKRN (RNN)
Name Bornholm Ronne
Region Denmark / Faroe Islands
Timezone Europe/Copenhagen (UTC+1.0)
Stats Elevation 52 ft / 16 m (AMSL)
Location 55.063265° 14.759558°
Runways 1
Magnetic Variation 4.382° E

METAR

EKRN 151620Z 27011KT 9999 FEW016 BKN023 05/02 Q0995

Decode

TAF

Not found

Destination Runways

ID Width Length Bearing (true) Bearing (mag) Surface Threshold Offset Overrun Length
11 164 ft / 50 m 6,551 ft / 1,997 m 113.76° 109.38° Asphalt 0 ft / 0 m 197 ft / 60 m
29 164 ft / 50 m 6,551 ft / 1,997 m 293.78° 289.40° Asphalt 0 ft / 0 m 0 ft / 0 m

Approach Navaids

Runway Type Ident Frequency Range Bearing (true) Bearing (mag) Slope Elevation
11 Localiser IAR 109.35 MHz 18 nm / 33 km 113.78° 109.40° - 52 ft / 16 m (AMSL)
11 Glidescope IAR 109.35 MHz 10 nm / 19 km 113.77° 109.39° 3.00° 52 ft / 16 m (AMSL)
11 DME IAR 109.35 MHz 18 nm / 33 km - - - 52 ft / 16 m (AMSL)
29 Localiser IRE 110.30 MHz 18 nm / 33 km 295.54° 291.16° - 52 ft / 16 m (AMSL)
29 Glidescope IRE 110.30 MHz 10 nm / 19 km 293.77° 289.39° 3.00° 52 ft / 16 m (AMSL)
29 DME IRE 110.30 MHz 18 nm / 33 km - - - 55 ft / 17 m (AMSL)

Popular Alternatives